Varadero, Cuba

11:45 AM CST on March 05, 2015 (GMT -0500)
Jose Marti International | Change Station
CLOSE
Current Station
Airport
Location: Havana,
Elevation: 246 ft
Nearby Weather Stations

Elev 246 ft 22.99 °N, 82.41 °W | Updated 50 minutes ago

Partly Cloudy
Partly Cloudy
82 °F
Feels Like 83 °F
N
12
Wind Variable Wind from SSE

Today
High -- | Low -- °F
--% Chance of Precip.
Yesterday
High -- | Low -- °F
Precip. -- in
6:44 AM 6:30 PM
Full, 100% visible
Pressure 30.09 in
Visibility 6.2 miles
Clouds Few 2500 ft
Heat Index 83 °F
Dew Point 63 °F
Humidity 51%
Rainfall 0.00 in
Snow Depth Not available.
UV 10 out of 12
Pollen Not available.
Air Quality Not available.
Flu Activity Not available.
METAR MUHA 051555Z 15010KT 110V180 9999 FEW025 28/17 Q1019

More Conditions Fewer Conditions

Pressure 30.09 in
Visibility 6.2 miles
Clouds Few 2500 ft
Heat Index 83 °F
Dew Point 63 °F
Humidity 51%
Rainfall 0.00 in
Snow Depth Not available.
UV 10 out of 12
Pollen Not available.
Air Quality Not available.
Flu Activity Not available.
METAR MUHA 051555Z 15010KT 110V180 9999 FEW025 28/17 Q1019

More Conditions Fewer Conditions

10-Day Weather Forecast

Almanac

Astronomy

Mar. 05, 2015 Rise Set
Actual Time
Civil Twilight
Nautical Twilight
Astronomical Twilight
Moon
Length of Visible Light
Length of Day
Tomorrow will be .
, % of the Moon is Illuminated

Today's Extremes

Country Highs Country Lows

Community

WunderPhotos

Upload Photos

1,802,851 photos uploaded!

WunderBlogs® & News

Nearby

Air Quality

  Air Quality AQ Index Pollutant
Not available.

Snow Depth

Station Depth Elevation

Earthquake Activity

City Distance Mag. Time & Date
Minimum magnitude displayed is 2.5.

Coastal Water Temperatures

Place Temperature

Nearby Weather Stations